sensor_id;sensor_type;location;lat;lon;timestamp;P1;durP1;ratioP1;P2;durP2;ratioP2
6133;SDS011;3098;42.678;23.364;2022-10-03T00:04:30;0.98;;;0.90;;
6133;SDS011;3098;42.678;23.364;2022-10-03T00:07:09;1.27;;;0.98;;
6133;SDS011;3098;42.678;23.364;2022-10-03T00:09:50;1.80;;;1.25;;
6133;SDS011;3098;42.678;23.364;2022-10-03T00:12:39;1.33;;;1.05;;
6133;SDS011;3098;42.678;23.364;2022-10-03T00:15:17;2.05;;;1.35;;
6133;SDS011;3098;42.678;23.364;2022-10-03T00:17:52;1.00;;;0.80;;
6133;SDS011;3098;42.678;23.364;2022-10-03T00:20:41;1.35;;;0.93;;
6133;SDS011;3098;42.678;23.364;2022-10-03T00:23:20;1.15;;;0.90;;
6133;SDS011;3098;42.678;23.364;2022-10-03T00:26:02;1.02;;;0.90;;
6133;SDS011;3098;42.678;23.364;2022-10-03T00:28:50;0.60;;;0.60;;
6133;SDS011;3098;42.678;23.364;2022-10-03T00:31:34;3.63;;;1.27;;
6133;SDS011;3098;42.678;23.364;2022-10-03T00:34:08;3.30;;;1.20;;
6133;SDS011;3098;42.678;23.364;2022-10-03T00:36:47;1.85;;;0.95;;
6133;SDS011;3098;42.678;23.364;2022-10-03T00:39:30;1.35;;;0.93;;
6133;SDS011;3098;42.678;23.364;2022-10-03T00:51:41;2.13;;;1.45;;
6133;SDS011;3098;42.678;23.364;2022-10-03T00:54:22;2.55;;;1.50;;
6133;SDS011;3098;42.678;23.364;2022-10-03T01:00:10;3.10;;;1.60;;
6133;SDS011;3098;42.678;23.364;2022-10-03T01:02:53;3.75;;;1.60;;
6133;SDS011;3098;42.678;23.364;2022-10-03T01:05:40;1.75;;;1.42;;
6133;SDS011;3098;42.678;23.364;2022-10-03T01:08:24;5.32;;;1.70;;
6133;SDS011;3098;42.678;23.364;2022-10-03T01:11:02;1.33;;;1.23;;
6133;SDS011;3098;42.678;23.364;2022-10-03T01:13:43;1.75;;;1.15;;
6133;SDS011;3098;42.678;23.364;2022-10-03T01:16:21;3.28;;;1.52;;
6133;SDS011;3098;42.678;23.364;2022-10-03T01:19:02;2.67;;;1.30;;
6133;SDS011;3098;42.678;23.364;2022-10-03T01:21:49;1.75;;;1.30;;
6133;SDS011;3098;42.678;23.364;2022-10-03T01:24:38;3.65;;;1.80;;
6133;SDS011;3098;42.678;23.364;2022-10-03T01:27:17;1.25;;;1.05;;
6133;SDS011;3098;42.678;23.364;2022-10-03T01:29:56;2.35;;;1.70;;
6133;SDS011;3098;42.678;23.364;2022-10-03T01:32:46;1.27;;;1.17;;
6133;SDS011;3098;42.678;23.364;2022-10-03T01:35:29;1.27;;;0.80;;
6133;SDS011;3098;42.678;23.364;2022-10-03T01:38:08;1.83;;;1.08;;
6133;SDS011;3098;42.678;23.364;2022-10-03T01:40:46;1.17;;;0.95;;
6133;SDS011;3098;42.678;23.364;2022-10-03T01:43:19;8.20;;;1.70;;
6133;SDS011;3098;42.678;23.364;2022-10-03T01:45:57;1.25;;;1.10;;
6133;SDS011;3098;42.678;23.364;2022-10-03T01:48:33;1.23;;;1.10;;
6133;SDS011;3098;42.678;23.364;2022-10-03T01:51:07;1.13;;;1.02;;
6133;SDS011;3098;42.678;23.364;2022-10-03T01:53:45;1.40;;;1.08;;
6133;SDS011;3098;42.678;23.364;2022-10-03T01:56:25;2.10;;;1.10;;
6133;SDS011;3098;42.678;23.364;2022-10-03T01:59:01;1.20;;;1.02;;
6133;SDS011;3098;42.678;23.364;2022-10-03T02:01:35;2.95;;;1.30;;
6133;SDS011;3098;42.678;23.364;2022-10-03T02:04:12;1.20;;;1.08;;
6133;SDS011;3098;42.678;23.364;2022-10-03T02:06:48;2.08;;;1.05;;
6133;SDS011;3098;42.678;23.364;2022-10-03T02:09:26;1.50;;;1.10;;
6133;SDS011;3098;42.678;23.364;2022-10-03T02:12:03;1.50;;;1.30;;
6133;SDS011;3098;42.678;23.364;2022-10-03T02:14:39;1.65;;;1.35;;
6133;SDS011;3098;42.678;23.364;2022-10-03T02:17:20;1.90;;;1.35;;
6133;SDS011;3098;42.678;23.364;2022-10-03T02:19:56;1.42;;;0.90;;
6133;SDS011;3098;42.678;23.364;2022-10-03T02:22:32;1.83;;;1.67;;
6133;SDS011;3098;42.678;23.364;2022-10-03T02:27:59;1.25;;;1.05;;
6133;SDS011;3098;42.678;23.364;2022-10-03T02:36:58;2.53;;;1.15;;
6133;SDS011;3098;42.678;23.364;2022-10-03T02:49:27;5.13;;;2.53;;
6133;SDS011;3098;42.678;23.364;2022-10-03T02:52:41;1.45;;;1.30;;
6133;SDS011;3098;42.678;23.364;2022-10-03T02:58:54;4.13;;;2.38;;
6133;SDS011;3098;42.678;23.364;2022-10-03T03:01:51;3.70;;;2.05;;
6133;SDS011;3098;42.678;23.364;2022-10-03T03:10:58;3.83;;;2.30;;
6133;SDS011;3098;42.678;23.364;2022-10-03T03:13:42;2.33;;;1.70;;
6133;SDS011;3098;42.678;23.364;2022-10-03T03:22:31;1.63;;;1.48;;
6133;SDS011;3098;42.678;23.364;2022-10-03T03:28:12;2.50;;;1.85;;
6133;SDS011;3098;42.678;23.364;2022-10-03T03:30:51;4.10;;;1.70;;
6133;SDS011;3098;42.678;23.364;2022-10-03T03:33:26;3.00;;;1.95;;
6133;SDS011;3098;42.678;23.364;2022-10-03T03:36:15;5.85;;;2.15;;
6133;SDS011;3098;42.678;23.364;2022-10-03T03:38:53;2.78;;;2.05;;
6133;SDS011;3098;42.678;23.364;2022-10-03T03:41:35;3.22;;;1.98;;
6133;SDS011;3098;42.678;23.364;2022-10-03T03:47:33;3.75;;;2.38;;
6133;SDS011;3098;42.678;23.364;2022-10-03T03:50:17;2.75;;;1.58;;
6133;SDS011;3098;42.678;23.364;2022-10-03T03:55:51;4.07;;;2.20;;
6133;SDS011;3098;42.678;23.364;2022-10-03T03:58:32;2.20;;;1.80;;
6133;SDS011;3098;42.678;23.364;2022-10-03T04:01:12;2.97;;;1.90;;
6133;SDS011;3098;42.678;23.364;2022-10-03T04:04:11;6.13;;;2.05;;
6133;SDS011;3098;42.678;23.364;2022-10-03T04:06:51;4.63;;;2.72;;
6133;SDS011;3098;42.678;23.364;2022-10-03T04:12:36;4.35;;;1.85;;
6133;SDS011;3098;42.678;23.364;2022-10-03T04:15:32;3.17;;;2.05;;
6133;SDS011;3098;42.678;23.364;2022-10-03T04:18:12;3.63;;;2.20;;
6133;SDS011;3098;42.678;23.364;2022-10-03T04:21:21;4.65;;;2.05;;
6133;SDS011;3098;42.678;23.364;2022-10-03T04:27:17;2.63;;;1.80;;
6133;SDS011;3098;42.678;23.364;2022-10-03T04:29:57;4.40;;;2.03;;
6133;SDS011;3098;42.678;23.364;2022-10-03T04:32:40;3.30;;;2.53;;
6133;SDS011;3098;42.678;23.364;2022-10-03T04:38:44;5.28;;;2.90;;
6133;SDS011;3098;42.678;23.364;2022-10-03T04:41:24;2.60;;;2.22;;
6133;SDS011;3098;42.678;23.364;2022-10-03T04:44:07;4.97;;;3.00;;
6133;SDS011;3098;42.678;23.364;2022-10-03T04:46:43;5.88;;;2.42;;
6133;SDS011;3098;42.678;23.364;2022-10-03T04:49:17;8.02;;;2.70;;
6133;SDS011;3098;42.678;23.364;2022-10-03T04:51:52;4.00;;;2.42;;
6133;SDS011;3098;42.678;23.364;2022-10-03T04:54:28;5.35;;;3.22;;
6133;SDS011;3098;42.678;23.364;2022-10-03T04:57:10;4.45;;;2.80;;
6133;SDS011;3098;42.678;23.364;2022-10-03T04:59:49;4.32;;;2.40;;
6133;SDS011;3098;42.678;23.364;2022-10-03T05:05:17;4.75;;;2.08;;
6133;SDS011;3098;42.678;23.364;2022-10-03T05:07:53;7.10;;;3.03;;
6133;SDS011;3098;42.678;23.364;2022-10-03T05:10:33;3.28;;;2.53;;
6133;SDS011;3098;42.678;23.364;2022-10-03T05:13:13;6.30;;;2.67;;
6133;SDS011;3098;42.678;23.364;2022-10-03T05:15:49;13.73;;;3.80;;
6133;SDS011;3098;42.678;23.364;2022-10-03T05:18:23;3.75;;;2.60;;
6133;SDS011;3098;42.678;23.364;2022-10-03T05:20:59;3.72;;;1.77;;
6133;SDS011;3098;42.678;23.364;2022-10-03T05:23:38;3.83;;;1.95;;
6133;SDS011;3098;42.678;23.364;2022-10-03T05:26:22;3.67;;;2.80;;
6133;SDS011;3098;42.678;23.364;2022-10-03T05:28:56;7.70;;;3.03;;
6133;SDS011;3098;42.678;23.364;2022-10-03T05:31:36;3.03;;;2.17;;
6133;SDS011;3098;42.678;23.364;2022-10-03T05:34:15;7.30;;;3.17;;
6133;SDS011;3098;42.678;23.364;2022-10-03T05:37:11;6.10;;;3.03;;
6133;SDS011;3098;42.678;23.364;2022-10-03T05:40:03;3.13;;;2.35;;
6133;SDS011;3098;42.678;23.364;2022-10-03T05:42:49;4.28;;;3.15;;
6133;SDS011;3098;42.678;23.364;2022-10-03T05:45:27;4.95;;;3.13;;
6133;SDS011;3098;42.678;23.364;2022-10-03T05:48:10;4.82;;;2.97;;
6133;SDS011;3098;42.678;23.364;2022-10-03T05:50:41;5.97;;;3.25;;
6133;SDS011;3098;42.678;23.364;2022-10-03T05:53:32;8.60;;;3.03;;
6133;SDS011;3098;42.678;23.364;2022-10-03T05:56:17;9.85;;;2.63;;
6133;SDS011;3098;42.678;23.364;2022-10-03T05:59:07;4.40;;;2.75;;
6133;SDS011;3098;42.678;23.364;2022-10-03T06:02:16;6.28;;;3.13;;
6133;SDS011;3098;42.678;23.364;2022-10-03T06:05:19;4.50;;;3.15;;
6133;SDS011;3098;42.678;23.364;2022-10-03T06:08:02;10.05;;;4.30;;
6133;SDS011;3098;42.678;23.364;2022-10-03T06:10:45;16.42;;;4.15;;
6133;SDS011;3098;42.678;23.364;2022-10-03T06:13:23;6.60;;;3.65;;
6133;SDS011;3098;42.678;23.364;2022-10-03T06:16:08;4.15;;;2.80;;
6133;SDS011;3098;42.678;23.364;2022-10-03T06:30:57;11.55;;;5.72;;
6133;SDS011;3098;42.678;23.364;2022-10-03T06:34:00;11.35;;;5.22;;
6133;SDS011;3098;42.678;23.364;2022-10-03T06:36:44;12.98;;;5.72;;
6133;SDS011;3098;42.678;23.364;2022-10-03T06:42:39;12.65;;;4.95;;
6133;SDS011;3098;42.678;23.364;2022-10-03T06:52:05;9.00;;;4.78;;
6133;SDS011;3098;42.678;23.364;2022-10-03T07:01:23;7.30;;;3.92;;
6133;SDS011;3098;42.678;23.364;2022-10-03T07:10:35;6.72;;;2.95;;
6133;SDS011;3098;42.678;23.364;2022-10-03T07:13:34;10.30;;;2.97;;
6133;SDS011;3098;42.678;23.364;2022-10-03T07:16:34;3.80;;;2.30;;
6133;SDS011;3098;42.678;23.364;2022-10-03T07:19:21;4.20;;;2.30;;
6133;SDS011;3098;42.678;23.364;2022-10-03T07:31:21;6.45;;;2.75;;
6133;SDS011;3098;42.678;23.364;2022-10-03T07:34:14;5.13;;;3.03;;
6133;SDS011;3098;42.678;23.364;2022-10-03T07:40:12;14.38;;;6.20;;
6133;SDS011;3098;42.678;23.364;2022-10-03T07:46:02;7.97;;;5.47;;
6133;SDS011;3098;42.678;23.364;2022-10-03T07:48:52;6.35;;;3.80;;
6133;SDS011;3098;42.678;23.364;2022-10-03T07:51:38;6.43;;;3.75;;
6133;SDS011;3098;42.678;23.364;2022-10-03T07:57:23;3.92;;;3.08;;
6133;SDS011;3098;42.678;23.364;2022-10-03T08:00:05;4.38;;;3.03;;
6133;SDS011;3098;42.678;23.364;2022-10-03T08:06:05;4.13;;;2.83;;
6133;SDS011;3098;42.678;23.364;2022-10-03T08:08:50;3.70;;;2.03;;
6133;SDS011;3098;42.678;23.364;2022-10-03T08:14:37;3.53;;;2.25;;
6133;SDS011;3098;42.678;23.364;2022-10-03T08:17:26;3.60;;;2.08;;
6133;SDS011;3098;42.678;23.364;2022-10-03T08:20:39;13.20;;;2.90;;
6133;SDS011;3098;42.678;23.364;2022-10-03T08:23:24;4.03;;;2.30;;
6133;SDS011;3098;42.678;23.364;2022-10-03T08:26:11;5.20;;;2.55;;
6133;SDS011;3098;42.678;23.364;2022-10-03T08:31:47;8.60;;;2.90;;
6133;SDS011;3098;42.678;23.364;2022-10-03T08:34:55;10.30;;;2.88;;
6133;SDS011;3098;42.678;23.364;2022-10-03T08:44:06;3.17;;;2.05;;
6133;SDS011;3098;42.678;23.364;2022-10-03T08:53:04;1.75;;;1.25;;
6133;SDS011;3098;42.678;23.364;2022-10-03T08:55:56;1.15;;;0.90;;
6133;SDS011;3098;42.678;23.364;2022-10-03T09:01:50;1.63;;;1.23;;
6133;SDS011;3098;42.678;23.364;2022-10-03T09:04:59;1.42;;;1.05;;
6133;SDS011;3098;42.678;23.364;2022-10-03T09:11:04;2.03;;;1.40;;
6133;SDS011;3098;42.678;23.364;2022-10-03T09:23:05;2.00;;;1.52;;
6133;SDS011;3098;42.678;23.364;2022-10-03T09:26:05;3.72;;;1.80;;
6133;SDS011;3098;42.678;23.364;2022-10-03T09:29:11;1.20;;;1.10;;
6133;SDS011;3098;42.678;23.364;2022-10-03T09:32:04;1.60;;;1.30;;
6133;SDS011;3098;42.678;23.364;2022-10-03T09:44:39;2.42;;;1.40;;
6133;SDS011;3098;42.678;23.364;2022-10-03T09:53:40;1.15;;;1.05;;
6133;SDS011;3098;42.678;23.364;2022-10-03T10:02:56;5.72;;;1.58;;
6133;SDS011;3098;42.678;23.364;2022-10-03T10:08:50;3.15;;;1.88;;
6133;SDS011;3098;42.678;23.364;2022-10-03T10:11:51;3.38;;;1.50;;
6133;SDS011;3098;42.678;23.364;2022-10-03T10:14:35;1.52;;;1.30;;
6133;SDS011;3098;42.678;23.364;2022-10-03T10:20:29;1.67;;;1.40;;
6133;SDS011;3098;42.678;23.364;2022-10-03T10:23:30;1.60;;;1.50;;
6133;SDS011;3098;42.678;23.364;2022-10-03T10:29:40;2.50;;;1.52;;
6133;SDS011;3098;42.678;23.364;2022-10-03T10:39:11;1.35;;;1.20;;
6133;SDS011;3098;42.678;23.364;2022-10-03T10:48:23;2.42;;;1.40;;
6133;SDS011;3098;42.678;23.364;2022-10-03T10:58:04;1.10;;;1.00;;
6133;SDS011;3098;42.678;23.364;2022-10-03T11:04:20;1.27;;;1.15;;
6133;SDS011;3098;42.678;23.364;2022-10-03T11:10:38;1.25;;;1.15;;
6133;SDS011;3098;42.678;23.364;2022-10-03T11:16:39;2.03;;;1.52;;
6133;SDS011;3098;42.678;23.364;2022-10-03T11:22:55;1.45;;;1.30;;
6133;SDS011;3098;42.678;23.364;2022-10-03T11:38:39;2.22;;;1.70;;
6133;SDS011;3098;42.678;23.364;2022-10-03T11:41:17;2.28;;;1.38;;
6133;SDS011;3098;42.678;23.364;2022-10-03T11:43:58;3.40;;;2.20;;
6133;SDS011;3098;42.678;23.364;2022-10-03T11:46:46;1.63;;;1.33;;
6133;SDS011;3098;42.678;23.364;2022-10-03T11:49:25;2.53;;;2.05;;
6133;SDS011;3098;42.678;23.364;2022-10-03T11:52:18;4.32;;;1.92;;
6133;SDS011;3098;42.678;23.364;2022-10-03T11:55:01;2.28;;;1.70;;
6133;SDS011;3098;42.678;23.364;2022-10-03T11:57:47;2.60;;;1.75;;
6133;SDS011;3098;42.678;23.364;2022-10-03T12:00:23;4.28;;;2.25;;
6133;SDS011;3098;42.678;23.364;2022-10-03T12:03:04;2.38;;;1.73;;
6133;SDS011;3098;42.678;23.364;2022-10-03T12:05:47;2.78;;;1.70;;
6133;SDS011;3098;42.678;23.364;2022-10-03T12:08:38;2.08;;;1.63;;
6133;SDS011;3098;42.678;23.364;2022-10-03T12:11:21;2.65;;;1.77;;
6133;SDS011;3098;42.678;23.364;2022-10-03T12:14:05;7.10;;;1.95;;
6133;SDS011;3098;42.678;23.364;2022-10-03T12:19:30;2.85;;;1.73;;
6133;SDS011;3098;42.678;23.364;2022-10-03T12:22:05;5.15;;;1.95;;
6133;SDS011;3098;42.678;23.364;2022-10-03T12:24:42;3.05;;;1.95;;
6133;SDS011;3098;42.678;23.364;2022-10-03T12:27:14;4.85;;;2.20;;
6133;SDS011;3098;42.678;23.364;2022-10-03T12:29:56;2.45;;;1.63;;
6133;SDS011;3098;42.678;23.364;2022-10-03T12:32:27;4.78;;;2.20;;
6133;SDS011;3098;42.678;23.364;2022-10-03T12:35:07;3.13;;;2.13;;
6133;SDS011;3098;42.678;23.364;2022-10-03T12:37:56;4.22;;;2.33;;
6133;SDS011;3098;42.678;23.364;2022-10-03T12:40:32;4.93;;;3.30;;
6133;SDS011;3098;42.678;23.364;2022-10-03T12:43:05;5.82;;;3.80;;
6133;SDS011;3098;42.678;23.364;2022-10-03T12:45:46;2.38;;;1.63;;
6133;SDS011;3098;42.678;23.364;2022-10-03T12:51:20;3.05;;;1.60;;
6133;SDS011;3098;42.678;23.364;2022-10-03T12:54:04;4.43;;;2.30;;
6133;SDS011;3098;42.678;23.364;2022-10-03T12:56:39;2.45;;;1.70;;
6133;SDS011;3098;42.678;23.364;2022-10-03T12:59:13;3.95;;;2.10;;
6133;SDS011;3098;42.678;23.364;2022-10-03T13:02:00;3.22;;;1.90;;
6133;SDS011;3098;42.678;23.364;2022-10-03T13:04:59;3.33;;;2.20;;
6133;SDS011;3098;42.678;23.364;2022-10-03T13:07:50;4.88;;;2.25;;
6133;SDS011;3098;42.678;23.364;2022-10-03T13:10:22;3.97;;;2.33;;
6133;SDS011;3098;42.678;23.364;2022-10-03T13:13:00;2.90;;;1.85;;
6133;SDS011;3098;42.678;23.364;2022-10-03T13:15:41;2.75;;;1.73;;
6133;SDS011;3098;42.678;23.364;2022-10-03T13:18:28;2.03;;;1.40;;
6133;SDS011;3098;42.678;23.364;2022-10-03T13:21:04;2.45;;;1.63;;
6133;SDS011;3098;42.678;23.364;2022-10-03T13:23:40;3.38;;;2.25;;
6133;SDS011;3098;42.678;23.364;2022-10-03T13:26:13;4.30;;;1.70;;
6133;SDS011;3098;42.678;23.364;2022-10-03T13:28:51;2.45;;;1.75;;
6133;SDS011;3098;42.678;23.364;2022-10-03T13:31:38;3.55;;;2.40;;
6133;SDS011;3098;42.678;23.364;2022-10-03T13:34:21;2.03;;;1.67;;
6133;SDS011;3098;42.678;23.364;2022-10-03T13:36:52;2.40;;;1.70;;
6133;SDS011;3098;42.678;23.364;2022-10-03T13:39:25;0.95;;;0.88;;
6133;SDS011;3098;42.678;23.364;2022-10-03T13:42:08;2.78;;;1.85;;
6133;SDS011;3098;42.678;23.364;2022-10-03T13:44:45;2.40;;;1.58;;
6133;SDS011;3098;42.678;23.364;2022-10-03T13:47:40;1.58;;;1.30;;
6133;SDS011;3098;42.678;23.364;2022-10-03T13:50:14;2.95;;;2.00;;
6133;SDS011;3098;42.678;23.364;2022-10-03T13:52:47;3.30;;;1.75;;
6133;SDS011;3098;42.678;23.364;2022-10-03T13:55:22;1.50;;;1.40;;
6133;SDS011;3098;42.678;23.364;2022-10-03T14:00:59;3.63;;;2.03;;
6133;SDS011;3098;42.678;23.364;2022-10-03T14:03:54;2.90;;;1.95;;
6133;SDS011;3098;42.678;23.364;2022-10-03T14:06:40;2.55;;;1.58;;
6133;SDS011;3098;42.678;23.364;2022-10-03T14:09:24;2.78;;;2.08;;
6133;SDS011;3098;42.678;23.364;2022-10-03T14:12:05;3.58;;;1.95;;
6133;SDS011;3098;42.678;23.364;2022-10-03T14:14:44;2.25;;;1.48;;
6133;SDS011;3098;42.678;23.364;2022-10-03T14:17:24;2.20;;;1.60;;
6133;SDS011;3098;42.678;23.364;2022-10-03T14:20:08;2.20;;;1.60;;
6133;SDS011;3098;42.678;23.364;2022-10-03T14:22:56;2.40;;;1.60;;
6133;SDS011;3098;42.678;23.364;2022-10-03T14:25:41;2.22;;;1.38;;
6133;SDS011;3098;42.678;23.364;2022-10-03T14:28:15;4.15;;;1.38;;
6133;SDS011;3098;42.678;23.364;2022-10-03T14:30:55;1.85;;;1.30;;
6133;SDS011;3098;42.678;23.364;2022-10-03T14:33:31;1.95;;;1.50;;
6133;SDS011;3098;42.678;23.364;2022-10-03T14:36:08;4.25;;;1.52;;
6133;SDS011;3098;42.678;23.364;2022-10-03T14:41:55;1.90;;;1.55;;
6133;SDS011;3098;42.678;23.364;2022-10-03T14:44:53;3.35;;;1.60;;
6133;SDS011;3098;42.678;23.364;2022-10-03T14:47:23;2.08;;;1.52;;
6133;SDS011;3098;42.678;23.364;2022-10-03T14:49:52;5.95;;;1.95;;
6133;SDS011;3098;42.678;23.364;2022-10-03T14:52:23;3.72;;;1.92;;
6133;SDS011;3098;42.678;23.364;2022-10-03T14:54:56;16.92;;;8.07;;
6133;SDS011;3098;42.678;23.364;2022-10-03T14:57:32;2.65;;;1.65;;
6133;SDS011;3098;42.678;23.364;2022-10-03T15:00:03;3.45;;;1.40;;
6133;SDS011;3098;42.678;23.364;2022-10-03T15:02:32;1.63;;;1.52;;
6133;SDS011;3098;42.678;23.364;2022-10-03T15:05:03;2.90;;;2.05;;
6133;SDS011;3098;42.678;23.364;2022-10-03T15:07:36;3.92;;;1.85;;
6133;SDS011;3098;42.678;23.364;2022-10-03T15:10:11;2.47;;;1.95;;
6133;SDS011;3098;42.678;23.364;2022-10-03T15:12:42;1.92;;;1.67;;
6133;SDS011;3098;42.678;23.364;2022-10-03T15:15:14;1.73;;;1.30;;
6133;SDS011;3098;42.678;23.364;2022-10-03T15:17:48;2.72;;;1.65;;
6133;SDS011;3098;42.678;23.364;2022-10-03T15:20:18;1.98;;;1.60;;
6133;SDS011;3098;42.678;23.364;2022-10-03T15:22:51;2.08;;;1.55;;
6133;SDS011;3098;42.678;23.364;2022-10-03T15:25:22;1.92;;;1.70;;
6133;SDS011;3098;42.678;23.364;2022-10-03T15:27:53;3.25;;;1.83;;
6133;SDS011;3098;42.678;23.364;2022-10-03T15:30:25;2.08;;;1.45;;
6133;SDS011;3098;42.678;23.364;2022-10-03T15:33:01;3.80;;;1.83;;
6133;SDS011;3098;42.678;23.364;2022-10-03T15:35:33;2.53;;;1.90;;
6133;SDS011;3098;42.678;23.364;2022-10-03T15:38:06;4.35;;;2.17;;
6133;SDS011;3098;42.678;23.364;2022-10-03T15:40:44;2.47;;;1.85;;
6133;SDS011;3098;42.678;23.364;2022-10-03T15:43:29;2.63;;;1.95;;
6133;SDS011;3098;42.678;23.364;2022-10-03T15:45:59;4.30;;;2.15;;
6133;SDS011;3098;42.678;23.364;2022-10-03T15:48:38;2.25;;;1.58;;
6133;SDS011;3098;42.678;23.364;2022-10-03T15:51:13;1.77;;;1.48;;
6133;SDS011;3098;42.678;23.364;2022-10-03T15:53:45;2.17;;;1.58;;
6133;SDS011;3098;42.678;23.364;2022-10-03T15:56:18;1.77;;;1.45;;
6133;SDS011;3098;42.678;23.364;2022-10-03T15:58:50;3.15;;;1.85;;
6133;SDS011;3098;42.678;23.364;2022-10-03T16:01:21;3.38;;;1.48;;
6133;SDS011;3098;42.678;23.364;2022-10-03T16:03:52;1.80;;;1.52;;
6133;SDS011;3098;42.678;23.364;2022-10-03T16:06:23;3.28;;;1.70;;
6133;SDS011;3098;42.678;23.364;2022-10-03T16:08:58;1.83;;;1.48;;
6133;SDS011;3098;42.678;23.364;2022-10-03T16:11:33;2.05;;;1.42;;
6133;SDS011;3098;42.678;23.364;2022-10-03T16:14:11;3.08;;;1.65;;
6133;SDS011;3098;42.678;23.364;2022-10-03T16:16:45;1.67;;;1.42;;
6133;SDS011;3098;42.678;23.364;2022-10-03T16:19:24;1.85;;;1.50;;
6133;SDS011;3098;42.678;23.364;2022-10-03T16:21:55;1.30;;;1.20;;
6133;SDS011;3098;42.678;23.364;2022-10-03T16:24:34;6.05;;;1.80;;
6133;SDS011;3098;42.678;23.364;2022-10-03T16:27:09;1.80;;;1.40;;
6133;SDS011;3098;42.678;23.364;2022-10-03T16:29:42;2.22;;;1.48;;
6133;SDS011;3098;42.678;23.364;2022-10-03T16:32:17;1.23;;;1.13;;
6133;SDS011;3098;42.678;23.364;2022-10-03T16:34:48;2.85;;;1.60;;
6133;SDS011;3098;42.678;23.364;2022-10-03T16:37:17;3.15;;;1.40;;
6133;SDS011;3098;42.678;23.364;2022-10-03T16:39:51;2.78;;;1.70;;
6133;SDS011;3098;42.678;23.364;2022-10-03T16:42:23;2.97;;;1.40;;
6133;SDS011;3098;42.678;23.364;2022-10-03T16:44:53;2.65;;;1.70;;
6133;SDS011;3098;42.678;23.364;2022-10-03T16:47:32;2.67;;;1.83;;
6133;SDS011;3098;42.678;23.364;2022-10-03T16:50:02;2.92;;;1.98;;
6133;SDS011;3098;42.678;23.364;2022-10-03T16:52:49;4.80;;;2.50;;
6133;SDS011;3098;42.678;23.364;2022-10-03T16:55:21;3.25;;;1.80;;
6133;SDS011;3098;42.678;23.364;2022-10-03T16:57:56;2.80;;;1.67;;
6133;SDS011;3098;42.678;23.364;2022-10-03T17:00:27;4.05;;;2.08;;
6133;SDS011;3098;42.678;23.364;2022-10-03T17:03:00;2.33;;;1.70;;
6133;SDS011;3098;42.678;23.364;2022-10-03T17:05:31;1.20;;;1.10;;
6133;SDS011;3098;42.678;23.364;2022-10-03T17:08:09;2.88;;;1.48;;
6133;SDS011;3098;42.678;23.364;2022-10-03T17:10:38;1.25;;;1.10;;
6133;SDS011;3098;42.678;23.364;2022-10-03T17:13:12;2.00;;;1.42;;
6133;SDS011;3098;42.678;23.364;2022-10-03T17:15:46;4.63;;;1.73;;
6133;SDS011;3098;42.678;23.364;2022-10-03T17:18:19;2.25;;;1.67;;
6133;SDS011;3098;42.678;23.364;2022-10-03T17:20:51;3.70;;;1.90;;
6133;SDS011;3098;42.678;23.364;2022-10-03T17:23:29;4.45;;;2.20;;
6133;SDS011;3098;42.678;23.364;2022-10-03T17:26:05;6.07;;;2.45;;
6133;SDS011;3098;42.678;23.364;2022-10-03T17:28:38;6.40;;;2.17;;
6133;SDS011;3098;42.678;23.364;2022-10-03T17:31:19;1.05;;;0.85;;
6133;SDS011;3098;42.678;23.364;2022-10-03T17:33:56;2.13;;;1.50;;
6133;SDS011;3098;42.678;23.364;2022-10-03T17:39:32;4.53;;;2.40;;
6133;SDS011;3098;42.678;23.364;2022-10-03T17:42:07;4.50;;;1.85;;
6133;SDS011;3098;42.678;23.364;2022-10-03T17:44:49;7.60;;;1.63;;
6133;SDS011;3098;42.678;23.364;2022-10-03T17:47:25;2.20;;;1.70;;
6133;SDS011;3098;42.678;23.364;2022-10-03T17:50:02;1.98;;;1.38;;
6133;SDS011;3098;42.678;23.364;2022-10-03T17:52:34;1.80;;;1.38;;
6133;SDS011;3098;42.678;23.364;2022-10-03T17:55:06;2.03;;;1.55;;
6133;SDS011;3098;42.678;23.364;2022-10-03T17:57:39;2.20;;;1.70;;
6133;SDS011;3098;42.678;23.364;2022-10-03T18:00:17;2.50;;;1.60;;
6133;SDS011;3098;42.678;23.364;2022-10-03T18:02:50;2.28;;;1.50;;
6133;SDS011;3098;42.678;23.364;2022-10-03T18:05:24;2.58;;;1.83;;
6133;SDS011;3098;42.678;23.364;2022-10-03T18:07:54;2.63;;;1.20;;
6133;SDS011;3098;42.678;23.364;2022-10-03T18:10:27;2.38;;;1.55;;
6133;SDS011;3098;42.678;23.364;2022-10-03T18:13:00;2.78;;;1.73;;
6133;SDS011;3098;42.678;23.364;2022-10-03T18:15:38;1.48;;;1.33;;
6133;SDS011;3098;42.678;23.364;2022-10-03T18:18:23;2.95;;;2.03;;
6133;SDS011;3098;42.678;23.364;2022-10-03T18:21:17;4.00;;;1.90;;
6133;SDS011;3098;42.678;23.364;2022-10-03T18:24:01;2.38;;;1.35;;
6133;SDS011;3098;42.678;23.364;2022-10-03T18:26:39;1.42;;;0.98;;
6133;SDS011;3098;42.678;23.364;2022-10-03T18:29:16;1.33;;;1.23;;
6133;SDS011;3098;42.678;23.364;2022-10-03T18:31:53;3.28;;;1.20;;
6133;SDS011;3098;42.678;23.364;2022-10-03T18:34:24;5.70;;;1.30;;
6133;SDS011;3098;42.678;23.364;2022-10-03T18:36:59;2.55;;;1.40;;
6133;SDS011;3098;42.678;23.364;2022-10-03T18:39:42;1.70;;;1.15;;
6133;SDS011;3098;42.678;23.364;2022-10-03T18:42:10;1.33;;;1.20;;
6133;SDS011;3098;42.678;23.364;2022-10-03T18:44:38;2.67;;;1.33;;
6133;SDS011;3098;42.678;23.364;2022-10-03T18:47:13;2.83;;;1.30;;
6133;SDS011;3098;42.678;23.364;2022-10-03T18:49:49;1.60;;;1.23;;
6133;SDS011;3098;42.678;23.364;2022-10-03T18:52:28;2.88;;;1.30;;
6133;SDS011;3098;42.678;23.364;2022-10-03T18:55:03;3.75;;;1.17;;
6133;SDS011;3098;42.678;23.364;2022-10-03T18:57:41;1.77;;;1.25;;
6133;SDS011;3098;42.678;23.364;2022-10-03T19:00:16;2.10;;;1.00;;
6133;SDS011;3098;42.678;23.364;2022-10-03T19:02:49;3.15;;;1.52;;
6133;SDS011;3098;42.678;23.364;2022-10-03T19:05:19;3.17;;;1.67;;
6133;SDS011;3098;42.678;23.364;2022-10-03T19:07:50;1.20;;;1.10;;
6133;SDS011;3098;42.678;23.364;2022-10-03T19:13:19;1.45;;;1.27;;
6133;SDS011;3098;42.678;23.364;2022-10-03T19:18:54;0.93;;;0.90;;
6133;SDS011;3098;42.678;23.364;2022-10-03T19:21:31;0.90;;;0.75;;
6133;SDS011;3098;42.678;23.364;2022-10-03T19:24:02;2.35;;;1.30;;
6133;SDS011;3098;42.678;23.364;2022-10-03T19:26:36;1.63;;;1.08;;
6133;SDS011;3098;42.678;23.364;2022-10-03T19:29:09;1.88;;;1.15;;
6133;SDS011;3098;42.678;23.364;2022-10-03T19:31:42;1.35;;;1.25;;
6133;SDS011;3098;42.678;23.364;2022-10-03T19:34:19;1.02;;;0.95;;
6133;SDS011;3098;42.678;23.364;2022-10-03T19:36:50;3.58;;;1.45;;
6133;SDS011;3098;42.678;23.364;2022-10-03T19:39:21;1.98;;;1.17;;
6133;SDS011;3098;42.678;23.364;2022-10-03T19:41:52;1.33;;;0.82;;
6133;SDS011;3098;42.678;23.364;2022-10-03T19:44:23;1.00;;;1.00;;
6133;SDS011;3098;42.678;23.364;2022-10-03T19:47:00;3.08;;;1.70;;
6133;SDS011;3098;42.678;23.364;2022-10-03T19:49:38;0.70;;;0.70;;
6133;SDS011;3098;42.678;23.364;2022-10-03T19:52:17;1.58;;;1.00;;
6133;SDS011;3098;42.678;23.364;2022-10-03T19:54:54;1.38;;;1.27;;
6133;SDS011;3098;42.678;23.364;2022-10-03T19:57:26;2.03;;;1.00;;
6133;SDS011;3098;42.678;23.364;2022-10-03T20:00:05;1.48;;;0.98;;
6133;SDS011;3098;42.678;23.364;2022-10-03T20:02:50;1.33;;;1.23;;
6133;SDS011;3098;42.678;23.364;2022-10-03T20:05:21;5.88;;;1.23;;
6133;SDS011;3098;42.678;23.364;2022-10-03T20:07:51;1.10;;;1.00;;
6133;SDS011;3098;42.678;23.364;2022-10-03T20:10:29;0.85;;;0.85;;
6133;SDS011;3098;42.678;23.364;2022-10-03T20:13:08;1.58;;;1.10;;
6133;SDS011;3098;42.678;23.364;2022-10-03T20:15:39;1.13;;;0.80;;
6133;SDS011;3098;42.678;23.364;2022-10-03T20:18:11;2.03;;;1.17;;
6133;SDS011;3098;42.678;23.364;2022-10-03T20:20:52;1.10;;;0.90;;
6133;SDS011;3098;42.678;23.364;2022-10-03T20:23:23;2.22;;;1.35;;
6133;SDS011;3098;42.678;23.364;2022-10-03T20:25:53;1.50;;;1.10;;
6133;SDS011;3098;42.678;23.364;2022-10-03T20:28:28;1.35;;;1.10;;
6133;SDS011;3098;42.678;23.364;2022-10-03T20:31:10;1.60;;;1.08;;
6133;SDS011;3098;42.678;23.364;2022-10-03T20:33:45;4.93;;;1.20;;
6133;SDS011;3098;42.678;23.364;2022-10-03T20:36:15;1.20;;;1.10;;
6133;SDS011;3098;42.678;23.364;2022-10-03T20:38:53;1.33;;;1.08;;
6133;SDS011;3098;42.678;23.364;2022-10-03T20:41:31;1.00;;;0.90;;